Skip Navigation

Christman Field Latest Observations

Switch to metric unitsOther observation timesWeekly graphs

Date Time
MST
Temp
°F
RH
%
DewPt
°F
Wind
mph
Dir
°
Gust
mph
Dir
°
Press
in Hg
Solar
W/m^2
Prec
in
2019-07-21 01:25 61.2 81.9 55.7 5.3 197 7.5 164 24.953 0.0 0.00
2019-07-21 01:20 60.6 82.9 55.4 4.6 162 7.1 175 24.950 0.0 0.00
2019-07-21 01:15 60.5 84.2 55.7 4.9 163 6.6 162 24.950 0.0 0.00
2019-07-21 01:10 60.4 83.8 55.5 4.5 163 5.5 170 24.950 0.1 0.00
2019-07-21 01:05 60.3 84.3 55.5 3.3 175 4.6 172 24.953 0.0 0.00
2019-07-21 01:00 60.2 84.6 55.5 4.1 178 6.0 177 24.952 0.0 0.00
2019-07-21 00:55 60.0 84.8 55.4 5.1 177 6.6 154 24.954 0.1 0.00
2019-07-21 00:50 60.2 85.9 56.0 3.5 138 7.5 157 24.954 0.0 0.00
2019-07-21 00:45 61.0 83.6 56.0 4.3 92 6.1 176 24.955 0.1 0.00
2019-07-21 00:40 60.1 82.7 54.9 4.8 175 6.4 188 24.954 0.1 0.00
2019-07-21 00:35 59.5 86.4 55.4 4.8 162 6.8 157 24.953 0.1 0.00
2019-07-21 00:30 59.4 86.9 55.5 3.9 192 4.8 162 24.949 0.1 0.00
2019-07-21 00:25 59.4 87.3 55.6 4.2 151 5.4 162 24.948 0.1 0.00
2019-07-21 00:20 59.3 87.2 55.5 3.4 151 4.4 143 24.951 0.1 0.00
2019-07-21 00:15 59.7 87.2 55.9 3.1 154 4.3 137 24.952 0.1 0.00
2019-07-21 00:10 60.0 85.2 55.6 3.2 128 4.3 124 24.945 0.1 0.00
2019-07-21 00:05 60.0 85.4 55.6 2.4 124 4.2 124 24.940 0.1 0.00
2019-07-21 00:00 59.6 85.7 55.3 0.1 192 1.2 274 24.938 0.1 0.00
2019-07-20 23:55 59.7 85.0 55.2 2.8 274 4.3 285 24.938 0.1 0.00
2019-07-20 23:50 59.4 85.7 55.1 4.1 281 5.0 277 24.936 0.1 0.00
2019-07-20 23:45 59.2 85.7 54.9 4.7 277 5.5 280 24.938 0.1 0.00
2019-07-20 23:40 59.6 85.6 55.3 5.1 280 6.0 292 24.941 0.1 0.00
2019-07-20 23:35 59.4 85.3 55.0 2.9 287 5.1 306 24.941 0.1 0.00
2019-07-20 23:30 59.1 87.1 55.3 3.6 254 5.6 248 24.939 0.2 0.00
2019-07-20 23:25 59.1 86.9 55.2 3.4 309 4.6 332 24.940 0.1 0.00
2019-07-20 23:20 59.3 85.1 54.8 3.7 308 5.0 302 24.941 0.2 0.00
2019-07-20 23:15 60.1 84.3 55.4 1.0 249 3.2 50 24.940 0.2 0.00
2019-07-20 23:10 60.5 84.4 55.8 4.7 42 7.9 51 24.938 0.2 0.00
2019-07-20 23:05 61.5 80.6 55.5 4.8 45 6.2 100 24.932 0.2 0.00
2019-07-20 23:00 60.7 79.2 54.2 3.2 93 5.4 88 24.924 0.1 0.00